createdAt,value
2019-06-08T00:00:15.240Z,15.67
2019-06-08T00:02:45.330Z,16.63
2019-06-08T00:05:14.671Z,17.47
2019-06-08T00:07:43.973Z,16.57
2019-06-08T00:10:13.271Z,17.30
2019-06-08T00:12:42.278Z,17.23
2019-06-08T00:15:11.687Z,17.43
2019-06-08T00:17:40.612Z,17.00
2019-06-08T00:20:09.723Z,16.07
2019-06-08T00:22:38.773Z,16.60
2019-06-08T00:25:08.312Z,17.37
2019-06-08T00:27:37.281Z,16.80
2019-06-08T00:30:07.864Z,18.77
2019-06-08T00:32:36.892Z,19.10
2019-06-08T00:35:06.524Z,18.10
2019-06-08T00:37:35.542Z,17.60
2019-06-08T00:40:04.936Z,17.53
2019-06-08T00:42:33.967Z,19.20
2019-06-08T00:45:03.329Z,18.93
2019-06-08T00:47:47.145Z,19.23
2019-06-08T00:50:03.146Z,19.20
2019-06-08T00:52:32.116Z,18.63
2019-06-08T00:55:01.125Z,20.23
2019-06-08T00:57:30.264Z,20.37
2019-06-08T00:59:59.211Z,20.70
2019-06-08T01:02:28.860Z,19.97
2019-06-08T01:04:57.902Z,20.27
2019-06-08T01:07:26.855Z,21.33
2019-06-08T01:09:55.869Z,20.77
2019-06-08T01:12:24.908Z,22.70
2019-06-08T01:14:53.850Z,23.83
2019-06-08T01:17:23.044Z,24.33
2019-06-08T01:19:52.211Z,23.33
2019-06-08T01:22:21.602Z,23.43
2019-06-08T01:24:51.064Z,22.87
2019-06-08T01:27:20.134Z,22.90
2019-06-08T01:29:49.140Z,24.03
2019-06-08T01:32:18.180Z,22.30
2019-06-08T01:34:47.176Z,22.87
2019-06-08T01:37:16.159Z,24.07
2019-06-08T01:39:45.095Z,23.93
2019-06-08T01:42:14.065Z,22.73
2019-06-08T01:44:43.078Z,20.53
2019-06-08T01:47:12.026Z,18.77
2019-06-08T01:49:40.964Z,15.30
2019-06-08T01:52:10.000Z,12.50
2019-06-08T01:54:38.934Z,11.30
2019-06-08T01:57:07.961Z,10.67
2019-06-08T01:59:36.909Z,10.00
2019-06-08T02:02:06.431Z,7.57
2019-06-08T02:04:35.511Z,7.20
2019-06-08T02:07:04.872Z,5.20
2019-06-08T02:09:34.848Z,7.03
2019-06-08T02:12:04.117Z,7.97
2019-06-08T02:14:33.293Z,5.57
2019-06-08T02:17:02.582Z,3.43
2019-06-08T02:19:32.651Z,2.47
2019-06-08T02:22:01.876Z,3.40
2019-06-08T02:24:31.174Z,3.10
2019-06-08T02:27:00.164Z,2.20
2019-06-08T02:29:29.439Z,3.67
2019-06-08T02:31:58.537Z,3.13
2019-06-08T02:34:28.362Z,3.47
2019-06-08T02:36:57.927Z,3.33
2019-06-08T02:39:28.394Z,2.07
2019-06-08T02:41:57.759Z,3.20
2019-06-08T02:44:28.277Z,3.07
2019-06-08T02:46:57.577Z,3.90
2019-06-08T02:49:26.568Z,2.37
2019-06-08T02:51:56.250Z,2.13
2019-06-08T02:54:26.262Z,2.47
2019-06-08T02:56:56.100Z,2.17
2019-06-08T02:59:29.316Z,3.47
2019-06-08T03:01:59.894Z,3.97
2019-06-08T03:04:32.399Z,2.47
2019-06-08T03:07:03.929Z,2.80
2019-06-08T03:09:34.727Z,4.40
2019-06-08T03:12:05.423Z,3.20
2019-06-08T03:14:35.552Z,7.70
2019-06-08T03:17:05.196Z,2.73
2019-06-08T03:19:35.670Z,2.17
2019-06-08T03:22:05.183Z,1.90
2019-06-08T03:24:34.861Z,1.77
2019-06-08T03:27:04.798Z,2.93
2019-06-08T03:29:34.977Z,1.67
2019-06-08T03:32:04.637Z,3.40
2019-06-08T03:34:35.523Z,2.37
2019-06-08T03:37:04.753Z,3.37
2019-06-08T03:39:35.147Z,4.73
2019-06-08T03:42:04.704Z,3.37
2019-06-08T03:44:34.241Z,1.80
2019-06-08T03:47:03.481Z,5.20
2019-06-08T03:49:42.918Z,1.83
2019-06-08T03:52:03.076Z,2.57
2019-06-08T03:54:32.025Z,1.40
2019-06-08T03:57:00.952Z,3.40
2019-06-08T03:59:29.888Z,2.30
2019-06-08T04:01:58.829Z,4.83
2019-06-08T04:04:28.122Z,3.53
2019-06-08T04:06:57.040Z,3.23
2019-06-08T04:09:26.101Z,2.30
2019-06-08T04:11:55.179Z,2.47
2019-06-08T04:14:24.151Z,2.97
2019-06-08T04:16:53.055Z,3.53
2019-06-08T04:19:22.045Z,2.07
2019-06-08T04:21:51.008Z,2.67
2019-06-08T04:24:19.988Z,2.67
2019-06-08T04:26:50.598Z,5.33
2019-06-08T04:29:19.849Z,3.40
2019-06-08T04:31:50.115Z,2.43
2019-06-08T04:34:19.240Z,2.63
2019-06-08T04:36:50.348Z,2.57
2019-06-08T04:39:19.033Z,2.57
2019-06-08T04:41:48.348Z,4.00
2019-06-08T04:44:17.659Z,2.40
2019-06-08T04:46:47.722Z,2.70
2019-06-08T04:49:17.723Z,3.30
2019-06-08T04:51:47.648Z,2.30
2019-06-08T04:54:17.655Z,1.70
2019-06-08T04:56:47.089Z,2.40
2019-06-08T04:59:16.249Z,2.50
2019-06-08T05:01:46.920Z,2.00
2019-06-08T05:04:16.304Z,2.83
2019-06-08T05:06:45.287Z,1.80
2019-06-08T05:09:33.477Z,4.90
2019-06-08T05:12:02.392Z,3.93
2019-06-08T05:14:31.596Z,2.57
2019-06-08T05:17:00.549Z,1.60
2019-06-08T05:19:29.460Z,2.37
2019-06-08T05:21:58.443Z,3.20
2019-06-08T05:24:27.387Z,2.63
2019-06-08T05:26:56.353Z,3.20
2019-06-08T05:29:25.619Z,3.47
2019-06-08T05:31:54.582Z,2.33
2019-06-08T05:34:23.516Z,3.77
2019-06-08T05:36:52.503Z,3.03
2019-06-08T05:39:21.441Z,3.97
2019-06-08T05:41:50.472Z,3.00
2019-06-08T05:44:19.542Z,3.83
2019-06-08T05:46:48.428Z,3.83
2019-06-08T05:49:17.552Z,1.80
2019-06-08T05:51:47.839Z,3.73
2019-06-08T05:54:16.915Z,4.80
2019-06-08T05:56:45.999Z,3.27
2019-06-08T05:59:15.134Z,1.50
2019-06-08T06:01:44.617Z,5.40
2019-06-08T06:04:13.560Z,2.50
2019-06-08T06:06:42.928Z,2.97
2019-06-08T06:09:12.008Z,2.57
2019-06-08T06:11:41.096Z,5.40
2019-06-08T06:14:10.023Z,1.43
2019-06-08T06:16:38.992Z,3.30
2019-06-08T06:19:08.045Z,3.10
2019-06-08T06:21:36.992Z,3.23
2019-06-08T06:24:06.363Z,5.10
2019-06-08T06:26:35.489Z,1.97
2019-06-08T06:29:04.660Z,5.37
2019-06-08T06:31:33.707Z,3.90
2019-06-08T06:34:02.737Z,6.33
2019-06-08T06:36:31.759Z,1.50
2019-06-08T06:39:00.761Z,4.20
2019-06-08T06:41:29.788Z,4.83
2019-06-08T06:43:58.718Z,1.53
2019-06-08T06:46:27.681Z,2.47
2019-06-08T06:48:56.967Z,2.13
2019-06-08T06:51:26.923Z,1.60
2019-06-08T06:53:56.069Z,3.10
2019-06-08T06:56:25.213Z,2.00
2019-06-08T06:58:54.404Z,2.77
2019-06-08T07:01:23.619Z,2.47
2019-06-08T07:03:52.628Z,3.13
2019-06-08T07:06:21.741Z,3.80
2019-06-08T07:08:50.712Z,2.17
2019-06-08T07:11:19.727Z,3.07
2019-06-08T07:13:48.770Z,1.83
2019-06-08T07:16:19.133Z,4.73
2019-06-08T07:18:48.471Z,3.27
2019-06-08T07:21:17.772Z,3.27
2019-06-08T07:23:49.097Z,3.10
2019-06-08T07:26:17.624Z,2.53
2019-06-08T07:28:48.137Z,1.83
2019-06-08T07:31:17.476Z,5.07
2019-06-08T07:33:46.743Z,5.03
2019-06-08T07:36:17.511Z,2.13
2019-06-08T07:38:46.983Z,2.30
2019-06-08T07:41:17.261Z,1.10
2019-06-08T07:43:46.216Z,2.63
2019-06-08T07:46:15.521Z,1.97
2019-06-08T07:48:44.916Z,2.67
2019-06-08T07:51:13.841Z,2.97
2019-06-08T07:53:42.784Z,2.50
2019-06-08T07:56:11.808Z,2.50
2019-06-08T07:58:41.097Z,1.50
2019-06-08T08:01:10.266Z,3.37
2019-06-08T08:03:39.484Z,4.43
2019-06-08T08:06:08.775Z,3.83
2019-06-08T08:08:37.826Z,4.30
2019-06-08T08:11:06.820Z,3.73
2019-06-08T08:13:36.096Z,2.60
2019-06-08T08:16:05.163Z,3.03
2019-06-08T08:18:34.274Z,1.93
2019-06-08T08:21:14.311Z,4.23
2019-06-08T08:23:33.811Z,3.50
2019-06-08T08:26:02.847Z,2.33
2019-06-08T08:28:31.831Z,1.77
2019-06-08T08:31:01.899Z,2.60
2019-06-08T08:33:31.108Z,1.10
2019-06-08T08:36:01.854Z,1.80
2019-06-08T08:38:31.125Z,1.63
2019-06-08T08:41:07.325Z,2.43
2019-06-08T08:43:31.133Z,1.90
2019-06-08T08:46:01.866Z,1.60
2019-06-08T08:48:31.727Z,2.67
2019-06-08T08:51:03.479Z,1.70
2019-06-08T08:53:31.570Z,3.57
2019-06-08T08:56:01.224Z,2.27
2019-06-08T08:58:31.161Z,2.40
2019-06-08T09:01:02.119Z,1.33
2019-06-08T09:03:33.723Z,4.17
2019-06-08T09:06:03.686Z,2.17
2019-06-08T09:08:31.912Z,2.80
2019-06-08T09:11:03.508Z,2.40
2019-06-08T09:13:31.444Z,2.80
2019-06-08T09:16:03.454Z,4.23
2019-06-08T09:18:31.255Z,3.80
2019-06-08T09:21:02.363Z,3.63
2019-06-08T09:23:30.959Z,4.77
2019-06-08T09:26:07.497Z,3.70
2019-06-08T09:28:30.629Z,2.17
2019-06-08T09:31:02.301Z,1.73
2019-06-08T09:33:30.280Z,2.87
2019-06-08T09:36:02.380Z,4.57
2019-06-08T09:38:29.977Z,2.83
2019-06-08T09:41:01.253Z,3.63
2019-06-08T09:43:29.521Z,6.83
2019-06-08T09:46:00.594Z,3.40
2019-06-08T09:48:29.512Z,3.80
2019-06-08T09:51:00.410Z,4.57
2019-06-08T09:53:37.130Z,3.13
2019-06-08T09:56:04.581Z,2.50
2019-06-08T09:58:31.898Z,2.67
2019-06-08T10:01:02.858Z,1.63
2019-06-08T10:03:31.823Z,5.27
2019-06-08T10:06:06.473Z,2.00
2019-06-08T10:08:31.597Z,3.03
2019-06-08T10:11:03.141Z,3.67
2019-06-08T10:13:31.461Z,3.13
2019-06-08T10:16:03.614Z,3.53
2019-06-08T10:18:31.289Z,4.77
2019-06-08T10:21:01.359Z,1.90
2019-06-08T10:23:34.416Z,2.67
2019-06-08T10:26:03.437Z,3.47
2019-06-08T10:28:32.152Z,4.93
2019-06-08T10:31:03.060Z,2.40
2019-06-08T10:33:31.860Z,2.00
2019-06-08T10:36:02.315Z,2.30
2019-06-08T10:38:31.655Z,10.97
2019-06-08T10:41:06.858Z,3.20
2019-06-08T10:43:31.831Z,3.63
2019-06-08T10:46:07.744Z,4.00
2019-06-08T10:48:31.683Z,6.63
2019-06-08T10:51:03.729Z,4.73
2019-06-08T10:53:44.978Z,1.87
2019-06-08T10:56:03.440Z,6.00
2019-06-08T10:58:33.040Z,4.03
2019-06-08T11:01:04.768Z,8.10
2019-06-08T11:03:32.928Z,4.50
2019-06-08T11:06:03.276Z,3.70
2019-06-08T11:08:32.537Z,3.20
2019-06-08T11:11:02.673Z,4.73
2019-06-08T11:13:32.088Z,9.37
2019-06-08T11:16:02.822Z,3.30
2019-06-08T11:18:31.907Z,3.33
2019-06-08T11:21:02.421Z,4.53
2019-06-08T11:23:31.585Z,5.13
2019-06-08T11:26:04.577Z,5.43
2019-06-08T11:28:31.610Z,3.17
2019-06-08T11:31:01.788Z,3.90
2019-06-08T11:33:31.017Z,4.13
2019-06-08T11:36:02.924Z,1.20
2019-06-08T11:38:30.711Z,5.83
2019-06-08T11:41:02.060Z,3.57
2019-06-08T11:43:30.793Z,4.03
2019-06-08T11:46:00.530Z,2.23
2019-06-08T11:48:29.932Z,7.03
2019-06-08T11:51:00.515Z,2.50
2019-06-08T11:53:29.777Z,3.40
2019-06-08T11:56:01.201Z,3.23
2019-06-08T11:58:32.140Z,4.60
2019-06-08T12:01:05.135Z,3.00
2019-06-08T12:03:34.607Z,2.50
2019-06-08T12:06:04.296Z,6.30
2019-06-08T12:08:33.573Z,6.60
2019-06-08T12:11:04.239Z,4.77
2019-06-08T12:13:33.402Z,3.53
2019-06-08T12:16:03.097Z,5.57
2019-06-08T12:18:32.247Z,3.67
2019-06-08T12:21:01.464Z,5.63
2019-06-08T12:23:31.171Z,3.53
2019-06-08T12:26:00.467Z,3.10
2019-06-08T12:28:29.443Z,3.87
2019-06-08T12:31:00.966Z,7.50
2019-06-08T12:33:30.762Z,5.83
2019-06-08T12:36:00.100Z,4.87
2019-06-08T12:38:33.568Z,5.50
2019-06-08T12:40:59.757Z,7.63
2019-06-08T12:43:28.816Z,3.03
2019-06-08T12:45:58.167Z,5.13
2019-06-08T12:48:28.726Z,6.50
2019-06-08T12:50:58.098Z,6.50
2019-06-08T12:53:28.301Z,4.33
2019-06-08T12:55:57.979Z,4.00
2019-06-08T12:58:27.571Z,5.10
2019-06-08T13:00:57.967Z,7.53
2019-06-08T13:03:27.681Z,5.83
2019-06-08T13:05:57.688Z,5.07
2019-06-08T13:08:28.654Z,4.50
2019-06-08T13:11:00.419Z,5.57
2019-06-08T13:13:28.453Z,4.77
2019-06-08T13:15:58.047Z,3.57
2019-06-08T13:18:27.392Z,5.10
2019-06-08T13:20:58.996Z,3.50
2019-06-08T13:23:28.326Z,4.25
2019-06-08T13:25:57.380Z,4.70
2019-06-08T13:28:28.404Z,6.00
2019-06-08T13:30:58.123Z,3.97
2019-06-08T13:33:28.042Z,3.33
2019-06-08T13:35:58.066Z,4.78
2019-06-08T13:38:27.791Z,2.83
2019-06-08T13:41:29.815Z,3.53
2019-06-08T13:43:58.268Z,3.80
2019-06-08T13:46:28.201Z,2.90
2019-06-08T13:48:58.549Z,4.27
2019-06-08T13:51:28.254Z,3.17
2019-06-08T13:53:58.163Z,4.57
2019-06-08T13:56:28.442Z,5.93
2019-06-08T13:58:57.913Z,4.77
2019-06-08T14:01:30.465Z,5.30
2019-06-08T14:03:58.320Z,11.30
2019-06-08T14:06:28.461Z,3.03
2019-06-08T14:08:58.142Z,3.53
2019-06-08T14:11:28.067Z,3.20
2019-06-08T14:13:58.380Z,4.47
2019-06-08T14:16:29.506Z,3.77
2019-06-08T14:18:58.851Z,5.47
2019-06-08T14:21:32.028Z,6.07
2019-06-08T14:23:58.828Z,8.07
2019-06-08T14:26:27.879Z,7.70
2019-06-08T14:29:00.861Z,9.30
2019-06-08T14:31:31.606Z,6.77
2019-06-08T14:33:58.015Z,2.43
2019-06-08T14:36:29.090Z,4.67
2019-06-08T14:39:01.902Z,2.27
2019-06-08T14:41:29.812Z,7.27
2019-06-08T14:43:59.323Z,3.57
2019-06-08T14:46:28.766Z,6.25
2019-06-08T14:48:58.587Z,2.83
2019-06-08T14:51:47.878Z,3.87
2019-06-08T14:54:18.703Z,8.23
2019-06-08T14:56:47.973Z,5.43
2019-06-08T14:59:18.836Z,3.27
2019-06-08T15:01:48.963Z,7.77
2019-06-08T15:04:22.365Z,5.55
2019-06-08T15:06:49.086Z,2.37
2019-06-08T15:09:19.321Z,2.93
2019-06-08T15:11:48.789Z,1.43
2019-06-08T15:14:19.344Z,5.37
2019-06-08T15:16:49.394Z,2.60
2019-06-08T15:19:20.115Z,4.20
2019-06-08T15:21:49.424Z,8.43
2019-06-08T15:24:18.674Z,3.80
2019-06-08T15:26:48.724Z,5.77
2019-06-08T15:29:18.284Z,5.60
2019-06-08T15:31:48.233Z,4.47
2019-06-08T15:34:18.043Z,5.27
2019-06-08T15:36:47.352Z,4.40
2019-06-08T15:39:17.939Z,3.00
2019-06-08T15:41:48.798Z,4.67
2019-06-08T15:44:21.365Z,2.77
2019-06-08T15:46:48.782Z,6.10
2019-06-08T15:49:18.608Z,4.67
2019-06-08T15:51:48.100Z,3.43
2019-06-08T15:54:17.365Z,10.40
2019-06-08T15:56:51.462Z,2.93
2019-06-08T15:59:17.259Z,4.13
2019-06-08T16:01:46.593Z,3.30
2019-06-08T16:04:15.760Z,2.30
2019-06-08T16:06:44.880Z,7.63
2019-06-08T16:09:13.844Z,3.63
2019-06-08T16:11:43.132Z,2.20
2019-06-08T16:14:12.092Z,6.23
2019-06-08T16:16:41.035Z,3.93
2019-06-08T16:19:10.304Z,3.03
2019-06-08T16:21:39.332Z,4.17
2019-06-08T16:24:08.375Z,4.27
2019-06-08T16:26:52.001Z,11.07
2019-06-08T16:29:08.009Z,4.23
2019-06-08T16:31:36.956Z,4.17
2019-06-08T16:34:05.972Z,1.73
2019-06-08T16:36:35.629Z,3.90
2019-06-08T16:39:06.965Z,4.30
2019-06-08T16:41:36.160Z,7.17
2019-06-08T16:44:07.234Z,7.03
2019-06-08T16:46:36.566Z,3.60
2019-06-08T16:49:05.986Z,3.67
2019-06-08T16:51:35.797Z,3.93
2019-06-08T16:54:05.303Z,2.87
2019-06-08T16:56:34.411Z,4.47
2019-06-08T16:59:03.364Z,4.33
2019-06-08T17:01:32.936Z,6.47
2019-06-08T17:04:02.232Z,6.80
2019-06-08T17:06:31.242Z,3.13
2019-06-08T17:09:00.174Z,2.00
2019-06-08T17:11:29.657Z,6.10
2019-06-08T17:13:58.863Z,3.63
2019-06-08T17:16:27.847Z,6.30
2019-06-08T17:19:38.308Z,4.53
2019-06-08T17:22:07.669Z,2.67
2019-06-08T17:24:38.376Z,3.77
2019-06-08T17:27:07.792Z,4.03
2019-06-08T17:29:36.916Z,4.07
2019-06-08T17:32:06.116Z,3.20
2019-06-08T17:34:36.505Z,3.40
2019-06-08T17:37:06.163Z,3.53
2019-06-08T17:39:35.937Z,3.47
2019-06-08T17:42:05.204Z,5.80
2019-06-08T17:44:34.905Z,5.00
2019-06-08T17:47:04.397Z,3.37
2019-06-08T17:49:34.455Z,3.60
2019-06-08T17:52:03.441Z,8.03
2019-06-08T17:54:32.676Z,4.77
2019-06-08T17:57:01.688Z,5.60
2019-06-08T17:59:30.830Z,3.70
2019-06-08T18:01:59.831Z,2.70
2019-06-08T18:04:28.844Z,5.97
2019-06-08T18:06:58.127Z,4.37
2019-06-08T18:09:28.124Z,6.67
2019-06-08T18:11:59.516Z,1.83
2019-06-08T18:14:30.698Z,2.83
2019-06-08T18:16:58.405Z,3.77
2019-06-08T18:19:30.885Z,6.50
2019-06-08T18:22:04.854Z,4.53
2019-06-08T18:24:30.512Z,2.27
2019-06-08T18:26:59.539Z,3.73
2019-06-08T18:29:28.613Z,3.60
2019-06-08T18:31:58.105Z,2.30
2019-06-08T18:34:28.477Z,2.53
2019-06-08T18:36:58.097Z,4.27
2019-06-08T18:39:28.627Z,4.47
2019-06-08T18:41:58.929Z,6.33
2019-06-08T18:44:28.565Z,5.33
2019-06-08T18:46:58.212Z,4.13
2019-06-08T18:49:28.846Z,2.60
2019-06-08T18:51:58.341Z,6.13
2019-06-08T18:54:28.060Z,3.40
2019-06-08T18:56:57.252Z,2.97
2019-06-08T18:59:28.376Z,4.20
2019-06-08T19:01:57.050Z,4.43
2019-06-08T19:04:27.629Z,3.50
2019-06-08T19:07:01.063Z,3.57
2019-06-08T19:09:28.411Z,4.17
2019-06-08T19:11:57.736Z,3.93
2019-06-08T19:14:28.656Z,6.47
2019-06-08T19:16:58.194Z,2.67
2019-06-08T19:19:28.501Z,4.03
2019-06-08T19:21:58.067Z,3.60
2019-06-08T19:24:28.023Z,3.77
2019-06-08T19:26:57.809Z,3.03
2019-06-08T19:29:28.090Z,5.57
2019-06-08T19:32:00.607Z,4.83
2019-06-08T19:34:30.602Z,3.33
2019-06-08T19:36:59.059Z,3.00
2019-06-08T19:39:28.694Z,2.43
2019-06-08T19:41:59.898Z,4.87
2019-06-08T19:44:28.795Z,4.37
2019-06-08T19:46:58.073Z,4.80
2019-06-08T19:49:28.238Z,2.33
2019-06-08T19:51:58.025Z,5.07
2019-06-08T19:54:27.504Z,10.30
2019-06-08T19:56:57.474Z,3.80
2019-06-08T19:59:27.605Z,4.30
2019-06-08T20:01:59.604Z,2.93
2019-06-08T20:04:27.681Z,4.90
2019-06-08T20:07:00.056Z,5.10
2019-06-08T20:09:28.370Z,3.80
2019-06-08T20:12:00.240Z,4.20
2019-06-08T20:14:29.304Z,3.83
2019-06-08T20:16:58.280Z,6.33
2019-06-08T20:19:27.927Z,3.87
2019-06-08T20:21:58.290Z,3.53
2019-06-08T20:24:28.016Z,3.03
2019-06-08T20:26:57.243Z,3.53
2019-06-08T20:29:28.348Z,4.30
2019-06-08T20:31:57.753Z,4.13
2019-06-08T20:34:27.546Z,5.03
2019-06-08T20:36:57.375Z,5.20
2019-06-08T20:39:27.403Z,6.57
2019-06-08T20:41:58.597Z,5.97
2019-06-08T20:44:29.957Z,5.80
2019-06-08T20:46:58.047Z,4.70
2019-06-08T20:49:27.888Z,7.70
2019-06-08T20:51:57.099Z,4.63
2019-06-08T20:54:27.904Z,6.57
2019-06-08T20:56:58.033Z,6.77
2019-06-08T20:59:33.721Z,4.43
2019-06-08T21:01:59.058Z,8.23
2019-06-08T21:04:28.063Z,5.40
2019-06-08T21:06:57.444Z,7.00
2019-06-08T21:09:27.758Z,5.20
2019-06-08T21:11:58.770Z,4.10
2019-06-08T21:14:27.983Z,2.47
2019-06-08T21:16:58.584Z,4.60
2019-06-08T21:19:28.126Z,3.50
2019-06-08T21:21:59.197Z,6.10
2019-06-08T21:24:28.228Z,5.57
2019-06-08T21:27:00.521Z,2.70
2019-06-08T21:29:46.631Z,3.40
2019-06-08T21:32:02.054Z,6.00
2019-06-08T21:34:29.358Z,6.50
2019-06-08T21:37:00.611Z,5.03
2019-06-08T21:39:29.055Z,8.63
2019-06-08T21:42:02.339Z,4.60
2019-06-08T21:44:29.019Z,9.80
2019-06-08T21:47:01.271Z,9.70
2019-06-08T21:49:28.613Z,6.40
2019-06-08T21:52:00.721Z,7.90
2019-06-08T21:54:28.404Z,8.67
2019-06-08T21:57:00.616Z,9.50
2019-06-08T21:59:28.080Z,7.57
2019-06-08T22:02:01.890Z,10.17
2019-06-08T22:04:27.807Z,7.43
2019-06-08T22:06:59.655Z,6.50
2019-06-08T22:09:28.475Z,11.70
2019-06-08T22:12:00.564Z,7.80
2019-06-08T22:14:28.546Z,7.83
2019-06-08T22:17:00.103Z,8.97
2019-06-08T22:19:28.148Z,10.50
2019-06-08T22:21:59.944Z,7.20
2019-06-08T22:24:27.979Z,8.87
2019-06-08T22:26:58.579Z,6.70
2019-06-08T22:29:27.707Z,8.90
2019-06-08T22:31:57.672Z,11.73
2019-06-08T22:34:28.072Z,9.70
2019-06-08T22:36:59.044Z,7.93
2019-06-08T22:39:28.220Z,7.83
2019-06-08T22:41:58.524Z,7.63
2019-06-08T22:44:28.496Z,6.50
2019-06-08T22:46:59.806Z,8.07
2019-06-08T22:49:28.203Z,6.73
2019-06-08T22:51:59.123Z,7.43
2019-06-08T22:54:27.794Z,6.07
2019-06-08T22:56:59.837Z,5.03
2019-06-08T22:59:27.826Z,7.23
2019-06-08T23:02:01.228Z,5.97
2019-06-08T23:04:27.653Z,6.93
2019-06-08T23:06:59.638Z,6.47
2019-06-08T23:09:28.424Z,5.63
2019-06-08T23:12:01.125Z,7.87
2019-06-08T23:14:28.664Z,5.40
2019-06-08T23:17:00.460Z,4.20
2019-06-08T23:19:28.479Z,6.80
2019-06-08T23:21:59.320Z,6.83
2019-06-08T23:24:28.480Z,5.50
2019-06-08T23:26:57.799Z,7.17
2019-06-08T23:29:27.428Z,5.23
2019-06-08T23:31:59.681Z,6.33
2019-06-08T23:34:27.806Z,6.40
2019-06-08T23:37:00.008Z,7.00
2019-06-08T23:39:28.439Z,5.97
2019-06-08T23:41:58.136Z,6.40
2019-06-08T23:44:28.297Z,6.03
2019-06-08T23:46:59.453Z,6.50
2019-06-08T23:49:27.916Z,6.53
2019-06-08T23:51:59.639Z,7.93
2019-06-08T23:54:28.081Z,5.77
2019-06-08T23:56:57.008Z,6.70
2019-06-08T23:59:27.711Z,5.07
